Time;durP1;ratioP1;P1;durP2;ratioP2;P2;SDS_P1;SDS_P2;PMS_P1;PMS_P2;Temp;Humidity;BMP_temperature;BMP_pressure;BME280_temperature;BME280_humidity;BME280_pressure;Samples;Min_cycle;Max_cycle;Signal;HPM_P1;HPM_P2
2024/01/13 00:00:42;;;;;;;15.83;12.57;;;;;;;0.49;100.00;101568.72;5043082;28;20809;-76
2024/01/13 00:03:08;;;;;;;16.80;13.57;;;;;;;0.48;100.00;101575.50;5047829;28;20193;-76
2024/01/13 00:05:33;;;;;;;14.60;12.67;;;;;;;0.47;100.00;101576.28;5051684;28;20196;-76
2024/01/13 00:07:58;;;;;;;18.27;14.70;;;;;;;0.46;100.00;101572.00;5049055;28;20210;-76
2024/01/13 00:10:23;;;;;;;16.97;14.53;;;;;;;0.45;100.00;101573.66;5049142;28;20205;-76
2024/01/13 00:12:49;;;;;;;15.83;12.83;;;;;;;0.44;100.00;101576.13;5042484;28;20280;-76
2024/01/13 00:15:14;;;;;;;17.47;14.03;;;;;;;0.43;100.00;101574.38;5045089;28;20240;-75
2024/01/13 00:17:39;;;;;;;16.37;13.53;;;;;;;0.43;100.00;101576.91;5043497;28;20211;-76
2024/01/13 00:20:05;;;;;;;18.03;14.07;;;;;;;0.42;100.00;101576.06;5050749;28;20593;-76
2024/01/13 00:22:31;;;;;;;18.73;13.50;;;;;;;0.44;100.00;101579.56;5042575;28;20277;-75
2024/01/13 00:24:56;;;;;;;16.03;13.53;;;;;;;0.45;100.00;101573.66;5050451;28;20261;-77
2024/01/13 00:27:21;;;;;;;15.83;14.00;;;;;;;0.47;100.00;101571.19;5048237;28;20796;-75
2024/01/13 00:29:47;;;;;;;17.67;13.70;;;;;;;0.44;100.00;101566.81;5048647;28;20190;-75
2024/01/13 00:32:12;;;;;;;13.83;11.87;;;;;;;0.43;100.00;101562.53;5044172;28;20187;-75
2024/01/13 00:34:37;;;;;;;14.83;12.73;;;;;;;0.43;100.00;101562.53;5049912;28;20196;-75
2024/01/13 00:37:03;;;;;;;14.50;12.73;;;;;;;0.43;100.00;101561.63;5057741;28;20220;-77
2024/01/13 00:39:28;;;;;;;16.90;13.97;;;;;;;0.41;100.00;101559.03;5051986;28;20225;-78
2024/01/13 00:41:53;;;;;;;17.87;14.17;;;;;;;0.44;100.00;101558.28;5050146;28;20278;-76
2024/01/13 00:44:18;;;;;;;17.93;14.40;;;;;;;0.45;100.00;101566.00;5046186;28;20193;-75
2024/01/13 00:46:44;;;;;;;14.97;13.47;;;;;;;0.43;100.00;101557.44;5044851;28;20785;-75
2024/01/13 00:49:09;;;;;;;15.73;13.60;;;;;;;0.40;100.00;101553.81;5056544;28;20208;-75
2024/01/13 00:51:35;;;;;;;16.33;13.37;;;;;;;0.39;100.00;101550.41;5047906;28;20327;-75
2024/01/13 00:54:01;;;;;;;16.07;14.23;;;;;;;0.39;100.00;101550.41;5049368;28;20189;-75
2024/01/13 00:56:26;;;;;;;15.60;13.93;;;;;;;0.41;100.00;101553.94;5047657;28;20197;-74
2024/01/13 00:58:51;;;;;;;16.00;13.20;;;;;;;0.39;100.00;101547.88;5051276;28;20209;-76
2024/01/13 01:01:17;;;;;;;18.63;14.53;;;;;;;0.37;100.00;101546.06;5045704;28;20186;-76
2024/01/13 01:03:42;;;;;;;16.27;14.07;;;;;;;0.37;100.00;101538.41;5048188;28;20195;-74
2024/01/13 01:06:08;;;;;;;16.87;13.97;;;;;;;0.36;100.00;101539.19;5047810;28;20187;-75
2024/01/13 01:08:33;;;;;;;16.27;13.80;;;;;;;0.34;100.00;101528.06;5054042;28;20213;-77
2024/01/13 01:10:58;;;;;;;17.63;14.83;;;;;;;0.32;100.00;101530.50;5049335;28;20622;-76
2024/01/13 01:13:24;;;;;;;18.23;15.40;;;;;;;0.27;100.00;101534.50;5053832;28;20674;-75
2024/01/13 01:15:49;;;;;;;17.30;14.60;;;;;;;0.23;100.00;101525.78;5056146;28;20189;-77
2024/01/13 01:18:14;;;;;;;15.40;13.37;;;;;;;0.20;100.00;101518.00;5058048;28;20294;-75
2024/01/13 01:20:40;;;;;;;16.67;13.30;;;;;;;0.21;100.00;101517.22;5050288;28;20224;-75
2024/01/13 01:23:05;;;;;;;14.30;12.80;;;;;;;0.18;100.00;101518.72;5047362;28;20304;-75
2024/01/13 01:25:30;;;;;;;15.03;13.40;;;;;;;0.19;100.00;101523.00;5051457;28;20198;-75
2024/01/13 01:27:55;;;;;;;14.37;12.70;;;;;;;0.21;100.00;101519.78;5047249;28;20640;-76
2024/01/13 01:30:21;;;;;;;14.73;12.83;;;;;;;0.24;100.00;101521.59;5057544;28;20201;-75
2024/01/13 01:32:48;;;;;;;15.50;13.70;;;;;;;0.24;100.00;101524.13;5044692;28;20186;-75
2024/01/13 01:35:13;;;;;;;15.00;13.40;;;;;;;0.18;100.00;101524.69;5044333;28;20208;-76
2024/01/13 01:37:38;;;;;;;16.20;13.77;;;;;;;0.20;100.00;101520.56;5054812;28;20220;-76
2024/01/13 01:40:04;;;;;;;14.47;12.53;;;;;;;0.18;100.00;101505.97;5048880;28;20218;-75
2024/01/13 01:42:29;;;;;;;15.27;13.50;;;;;;;0.18;100.00;101500.88;5049131;28;20257;-76
2024/01/13 01:44:55;;;;;;;15.30;13.23;;;;;;;0.14;100.00;101504.94;5054333;28;20197;-76
2024/01/13 01:47:21;;;;;;;14.60;12.23;;;;;;;0.13;100.00;101500.66;5049076;28;20281;-74
2024/01/13 01:49:46;;;;;;;14.97;12.77;;;;;;;0.14;100.00;101502.41;5048407;28;20179;-76
2024/01/13 01:52:13;;;;;;;15.13;12.53;;;;;;;0.12;100.00;101502.34;5046049;28;20312;-75
2024/01/13 01:54:40;;;;;;;13.83;12.20;;;;;;;0.14;100.00;101505.84;5051179;28;20188;-76
2024/01/13 01:57:06;;;;;;;14.63;13.07;;;;;;;0.19;100.00;101493.34;5056551;28;20221;-75
2024/01/13 01:59:31;;;;;;;14.90;12.80;;;;;;;0.18;100.00;101485.59;5048647;28;20695;-75
2024/01/13 02:01:59;;;;;;;15.13;13.57;;;;;;;0.18;100.00;101496.69;5045344;28;20190;-74
2024/01/13 02:04:25;;;;;;;14.83;12.73;;;;;;;0.13;100.00;101485.38;5046272;28;20633;-76
2024/01/13 02:06:50;;;;;;;14.90;13.00;;;;;;;0.12;100.00;101488.72;5047663;28;20203;-75
2024/01/13 02:09:16;;;;;;;14.10;12.37;;;;;;;0.11;100.00;101479.31;5049308;28;20728;-76
2024/01/13 02:11:42;;;;;;;14.87;13.27;;;;;;;0.10;100.00;101482.66;5058114;28;20195;-77
2024/01/13 02:14:07;;;;;;;13.40;11.73;;;;;;;0.06;100.00;101474.00;5047762;28;20193;-74
2024/01/13 02:16:33;;;;;;;14.57;12.80;;;;;;;0.07;100.00;101469.78;5046307;28;20194;-76
2024/01/13 02:18:58;;;;;;;16.27;13.50;;;;;;;0.05;100.00;101467.16;5050744;28;20217;-76
2024/01/13 02:21:23;;;;;;;14.30;12.53;;;;;;;0.06;100.00;101466.34;5048129;28;20201;-75
2024/01/13 02:23:49;;;;;;;15.13;12.37;;;;;;;0.06;100.00;101458.72;5055772;28;20311;-78
2024/01/13 02:26:14;;;;;;;12.30;11.00;;;;;;;0.04;100.00;101452.66;5049923;28;20216;-76
2024/01/13 02:28:39;;;;;;;14.90;12.20;;;;;;;0.04;100.00;101454.34;5048955;28;20660;-75
2024/01/13 02:31:05;;;;;;;14.53;12.37;;;;;;;0.07;100.00;101455.38;5052296;28;20200;-74
2024/01/13 02:33:30;;;;;;;13.07;11.57;;;;;;;0.07;100.00;101455.38;5056585;28;20219;-75
2024/01/13 02:35:55;;;;;;;13.73;12.07;;;;;;;0.05;100.00;101451.03;5057101;28;20217;-74
2024/01/13 02:38:20;;;;;;;13.97;12.00;;;;;;;0.06;100.00;101455.31;5049220;28;20607;-76
2024/01/13 02:40:46;;;;;;;12.73;11.20;;;;;;;0.03;100.00;101445.81;5049447;28;20213;-75
2024/01/13 02:43:11;;;;;;;13.03;11.30;;;;;;;0.03;100.00;101447.50;5050761;28;20746;-74
2024/01/13 02:45:36;;;;;;;13.47;11.67;;;;;;;0.07;100.00;101442.66;5050711;28;20191;-75
2024/01/13 02:48:10;;;;;;;12.87;11.47;;;;;;;0.12;100.00;101441.25;5050834;28;20248;-75
2024/01/13 02:50:36;;;;;;;12.87;11.33;;;;;;;0.17;100.00;101440.56;5048490;28;20189;-74
2024/01/13 02:53:01;;;;;;;12.80;10.57;;;;;;;0.19;100.00;101442.44;5043725;28;20196;-75
2024/01/13 02:55:26;;;;;;;11.93;10.30;;;;;;;0.24;100.00;101435.03;5049079;28;20212;-77
2024/01/13 02:57:52;;;;;;;11.97;10.10;;;;;;;0.28;100.00;101439.50;5045796;28;20208;-75
2024/01/13 03:00:17;;;;;;;12.83;10.80;;;;;;;0.30;100.00;101433.66;5047932;28;20276;-75
2024/01/13 03:02:43;;;;;;;12.57;10.87;;;;;;;0.31;100.00;101426.88;5042895;28;20306;-78
2024/01/13 03:05:09;;;;;;;11.93;10.63;;;;;;;0.32;100.00;101421.00;5046020;28;20273;-75
2024/01/13 03:07:34;;;;;;;11.73;10.47;;;;;;;0.34;100.00;101428.75;5046113;28;20793;-76
2024/01/13 03:10:00;;;;;;;11.57;10.30;;;;;;;0.33;100.00;101422.75;5052685;28;20190;-75
2024/01/13 03:12:26;;;;;;;12.37;10.67;;;;;;;0.35;100.00;101430.50;5050307;28;20188;-75
2024/01/13 03:14:51;;;;;;;11.47;10.07;;;;;;;0.34;100.00;101416.88;5051113;28;20242;-75
2024/01/13 03:17:16;;;;;;;13.50;10.90;;;;;;;0.36;100.00;101422.91;5044101;28;20665;-75
2024/01/13 03:19:41;;;;;;;11.77;10.17;;;;;;;0.36;100.00;101422.06;5057071;28;20201;-76
2024/01/13 03:22:07;;;;;;;12.10;10.60;;;;;;;0.36;100.00;101422.06;5065997;28;20186;-75
2024/01/13 03:24:32;;;;;;;14.13;11.23;;;;;;;0.37;100.00;101413.63;5050883;28;20201;-75
2024/01/13 03:26:57;;;;;;;13.07;11.30;;;;;;;0.37;100.00;101417.03;5051109;28;20680;-75
2024/01/13 03:29:23;;;;;;;12.67;11.37;;;;;;;0.38;100.00;101423.88;5059952;28;20342;-75
2024/01/13 03:31:48;;;;;;;13.93;12.43;;;;;;;0.38;100.00;101412.81;5055118;28;20252;-77
2024/01/13 03:34:13;;;;;;;14.97;12.87;;;;;;;0.38;100.00;101410.28;5045687;28;21008;-75
2024/01/13 03:36:39;;;;;;;13.97;12.50;;;;;;;0.36;100.00;101406.78;5042667;28;20673;-75
2024/01/13 03:39:05;;;;;;;16.23;13.73;;;;;;;0.37;100.00;101406.84;5046623;28;21977;-75
2024/01/13 03:41:31;;;;;;;15.10;13.03;;;;;;;0.37;100.00;101408.53;5041577;28;20217;-76
2024/01/13 03:43:57;;;;;;;16.97;14.43;;;;;;;0.38;100.00;101400.97;5048816;28;20196;-75
2024/01/13 03:46:23;;;;;;;15.70;14.00;;;;;;;0.39;100.00;101386.53;5043345;28;20192;-74
2024/01/13 03:48:49;;;;;;;15.47;13.77;;;;;;;0.35;100.00;101382.97;5048885;28;20212;-76
2024/01/13 03:51:16;;;;;;;14.93;13.33;;;;;;;0.32;100.00;101382.81;5047264;28;20201;-75
2024/01/13 03:53:41;;;;;;;17.13;15.03;;;;;;;0.33;100.00;101392.19;5047074;28;20197;-76
2024/01/13 03:56:08;;;;;;;18.47;15.33;;;;;;;0.25;100.00;101391.81;5051004;28;20230;-75
2024/01/13 03:58:34;;;;;;;17.37;14.27;;;;;;;0.20;100.00;101382.19;5042611;28;20217;-76
2024/01/13 04:01:00;;;;;;;15.60;14.00;;;;;;;0.19;100.00;101388.97;5045848;28;20220;-75
2024/01/13 04:03:25;;;;;;;17.00;14.90;;;;;;;0.21;100.00;101382.28;5048799;28;20653;-76
2024/01/13 04:05:50;;;;;;;16.40;14.33;;;;;;;0.27;100.00;101382.59;5054044;28;20217;-76
2024/01/13 04:08:16;;;;;;;15.47;13.83;;;;;;;0.30;100.00;101387.84;5061385;28;20574;-76
2024/01/13 04:10:42;;;;;;;17.07;15.27;;;;;;;0.33;100.00;101376.91;5051172;28;20205;-76
2024/01/13 04:13:11;;;;;;;16.07;14.13;;;;;;;0.34;100.00;101385.44;5046691;28;20186;-75
2024/01/13 04:15:37;;;;;;;18.53;14.53;;;;;;;0.34;100.00;101372.72;5045158;28;20635;-75
2024/01/13 04:18:02;;;;;;;18.43;15.80;;;;;;;0.35;100.00;101371.91;5058394;28;20284;-75
2024/01/13 04:20:27;;;;;;;16.40;14.37;;;;;;;0.35;100.00;101375.31;5050676;28;20267;-76
2024/01/13 04:22:53;;;;;;;19.20;15.60;;;;;;;0.37;100.00;101375.44;5043280;28;20187;-78
2024/01/13 04:25:18;;;;;;;19.90;15.67;;;;;;;0.33;100.00;101376.91;5050326;28;20273;-77
2024/01/13 04:27:43;;;;;;;18.03;15.77;;;;;;;0.29;100.00;101377.59;5050465;28;20215;-76
2024/01/13 04:30:09;;;;;;;18.70;15.73;;;;;;;0.28;100.00;101375.84;5054067;28;20692;-76
2024/01/13 04:32:34;;;;;;;18.50;15.70;;;;;;;0.29;100.00;101372.50;5047993;28;20197;-75
2024/01/13 04:35:00;;;;;;;17.97;14.73;;;;;;;0.29;100.00;101377.59;5050943;28;20234;-78
2024/01/13 04:37:25;;;;;;;18.77;15.97;;;;;;;0.30;100.00;101375.09;5053132;28;20951;-76
2024/01/13 04:39:50;;;;;;;18.37;15.40;;;;;;;0.31;100.00;101383.59;5046593;28;20224;-76
2024/01/13 04:42:15;;;;;;;18.60;15.50;;;;;;;0.32;100.00;101375.16;5044009;28;20221;-76
2024/01/13 04:44:41;;;;;;;19.03;16.07;;;;;;;0.33;100.00;101376.06;5048557;28;20207;-75
2024/01/13 04:47:06;;;;;;;16.87;15.10;;;;;;;0.31;100.00;101373.41;5044790;28;20190;-76
2024/01/13 04:49:31;;;;;;;19.67;15.87;;;;;;;0.29;100.00;101375.03;5058291;28;20205;-77
2024/01/13 04:51:57;;;;;;;17.60;14.90;;;;;;;0.24;100.00;101384.09;5044109;28;20186;-76
2024/01/13 04:54:22;;;;;;;17.50;15.53;;;;;;;0.25;100.00;101379.06;5048493;28;20251;-76
2024/01/13 04:56:47;;;;;;;17.30;14.93;;;;;;;0.27;100.00;101380.03;5049076;28;20279;-77
2024/01/13 04:59:13;;;;;;;17.03;14.80;;;;;;;0.27;100.00;101385.13;5051508;28;20207;-78
2024/01/13 05:01:38;;;;;;;18.07;15.47;;;;;;;0.23;100.00;101383.22;5051412;28;20560;-76
2024/01/13 05:04:03;;;;;;;17.17;14.97;;;;;;;0.25;100.00;101378.22;5045311;28;20892;-75
2024/01/13 05:06:29;;;;;;;18.00;15.23;;;;;;;0.25;100.00;101378.22;5044162;28;20246;-76
2024/01/13 05:08:54;;;;;;;18.77;16.13;;;;;;;0.24;100.00;101386.66;5044760;28;20213;-76
2024/01/13 05:11:19;;;;;;;21.57;17.27;;;;;;;0.22;100.00;101378.06;5050536;28;20768;-76
2024/01/13 05:13:45;;;;;;;21.77;17.33;;;;;;;0.21;100.00;101376.31;5050707;28;20188;-75
2024/01/13 05:16:10;;;;;;;20.97;18.07;;;;;;;0.17;100.00;101380.38;5044973;28;20192;-76
2024/01/13 05:18:36;;;;;;;20.07;16.97;;;;;;;0.09;100.00;101382.53;5047613;28;20209;-74
2024/01/13 05:21:01;;;;;;;18.10;15.83;;;;;;;0.08;100.00;101390.97;5051784;28;20189;-76
2024/01/13 05:23:26;;;;;;;17.67;15.70;;;;;;;0.08;100.00;101383.31;5046386;28;20257;-76
2024/01/13 05:25:51;;;;;;;19.53;17.43;;;;;;;0.11;100.00;101383.47;5044799;28;20186;-76
2024/01/13 05:28:17;;;;;;;17.40;15.37;;;;;;;0.09;100.00;101384.19;5048955;28;20217;-75
2024/01/13 05:30:42;;;;;;;18.17;16.03;;;;;;;0.05;100.00;101384.84;5053452;28;20194;-74
2024/01/13 05:33:08;;;;;;;17.73;15.43;;;;;;;0.01;100.00;101380.38;5044034;28;20801;-75
2024/01/13 05:35:33;;;;;;;18.87;15.23;;;;;;;-0.01;100.00;101372.69;5048136;28;20650;-77
2024/01/13 05:37:59;;;;;;;19.33;15.53;;;;;;;-0.02;100.00;101373.47;5045237;28;20210;-75
2024/01/13 05:40:24;;;;;;;17.03;15.23;;;;;;;-0.07;100.00;101369.81;5047206;28;20290;-76
2024/01/13 05:42:49;;;;;;;17.67;15.23;;;;;;;-0.02;100.00;101360.75;5050503;28;20683;-76
2024/01/13 05:45:15;;;;;;;17.80;14.50;;;;;;;0.03;100.00;101356.75;5048819;28;20300;-76
2024/01/13 05:47:40;;;;;;;17.57;14.67;;;;;;;0.02;100.00;101343.94;5045124;28;20300;-75
2024/01/13 05:50:06;;;;;;;16.80;14.50;;;;;;;0.02;100.00;101349.03;5048661;28;20181;-75
2024/01/13 05:52:32;;;;;;;16.43;13.80;;;;;;;0.01;100.00;101348.16;5049723;28;20604;-75
2024/01/13 05:54:57;;;;;;;16.67;13.70;;;;;;;0.02;100.00;101349.91;5048452;28;20743;-76
2024/01/13 05:57:23;;;;;;;14.93;13.23;;;;;;;-0.02;100.00;101345.47;5046110;28;20193;-77
2024/01/13 05:59:48;;;;;;;15.47;13.07;;;;;;;0.01;100.00;101344.75;5052224;28;22193;-75
2024/01/13 06:02:14;;;;;;;16.00;14.30;;;;;;;0.02;100.00;101349.91;5048948;28;20552;-76
2024/01/13 06:04:40;;;;;;;15.20;13.60;;;;;;;0.06;100.00;101348.41;5051498;28;20216;-76
2024/01/13 06:07:05;;;;;;;14.70;13.07;;;;;;;0.10;100.00;101338.47;5044944;28;20228;-77
2024/01/13 06:09:31;;;;;;;16.07;14.03;;;;;;;0.13;100.00;101346.25;5048296;28;20810;-76
2024/01/13 06:11:57;;;;;;;15.00;13.40;;;;;;;0.16;100.00;101340.44;5050653;28;20211;-75
2024/01/13 06:14:22;;;;;;;14.37;12.80;;;;;;;0.17;100.00;101343.84;5045123;28;20177;-75
2024/01/13 06:16:47;;;;;;;16.63;14.70;;;;;;;0.19;100.00;101343.16;5047893;28;20691;-75
2024/01/13 06:19:13;;;;;;;17.97;14.40;;;;;;;0.18;100.00;101348.13;5048252;28;20211;-75
2024/01/13 06:21:42;;;;;;;15.60;13.83;;;;;;;0.15;100.00;101343.78;5046454;28;20284;-77
2024/01/13 06:24:08;;;;;;;16.00;13.57;;;;;;;0.10;100.00;101335.91;5049487;28;20198;-75
2024/01/13 06:26:37;;;;;;;15.60;13.57;;;;;;;0.08;100.00;101345.13;5048599;28;20192;-76
2024/01/13 06:29:04;;;;;;;17.87;15.40;;;;;;;0.08;100.00;101350.22;5047358;28;20205;-77
2024/01/13 06:31:29;;;;;;;16.27;14.43;;;;;;;0.05;100.00;101336.47;5048897;28;20188;-75
2024/01/13 06:33:55;;;;;;;17.43;15.10;;;;;;;0.05;100.00;101332.25;5051009;28;20239;-75
2024/01/13 06:36:20;;;;;;;21.07;18.73;;;;;;;0.10;100.00;101322.28;5049523;28;20723;-75
2024/01/13 06:38:46;;;;;;;20.77;17.33;;;;;;;0.08;100.00;101318.78;5049716;28;20632;-76
2024/01/13 06:41:11;;;;;;;22.27;19.60;;;;;;;0.03;100.00;101313.47;5058822;28;20192;-77
2024/01/13 06:43:36;;;;;;;19.23;16.63;;;;;;;0.05;100.00;101318.66;5043771;28;20221;-77
2024/01/13 06:46:02;;;;;;;21.30;17.30;;;;;;;0.06;100.00;101311.09;5054297;28;20200;-75
2024/01/13 06:48:27;;;;;;;17.00;14.87;;;;;;;0.06;100.00;101313.63;5051864;28;20706;-76
2024/01/13 06:50:52;;;;;;;16.27;14.57;;;;;;;0.08;100.00;101317.13;5052532;28;20707;-75
2024/01/13 06:53:17;;;;;;;16.03;14.33;;;;;;;0.12;100.00;101316.50;5048645;28;20188;-77
2024/01/13 06:55:43;;;;;;;16.27;14.03;;;;;;;0.17;100.00;101318.38;5054834;28;20188;-78
2024/01/13 06:58:08;;;;;;;16.07;14.27;;;;;;;0.19;100.00;101307.50;5059192;28;20208;-76
2024/01/13 07:00:34;;;;;;;16.10;13.70;;;;;;;0.21;100.00;101315.19;5055301;28;20213;-76
2024/01/13 07:02:59;;;;;;;15.70;13.87;;;;;;;0.22;100.00;101307.66;5048311;28;20263;-76
2024/01/13 07:05:24;;;;;;;16.90;14.40;;;;;;;0.21;100.00;101308.47;5053076;28;20195;-76
2024/01/13 07:07:50;;;;;;;18.97;16.37;;;;;;;0.22;100.00;101301.69;5051099;28;20205;-76
2024/01/13 07:10:15;;;;;;;24.90;21.57;;;;;;;0.20;100.00;101301.63;5047433;28;20755;-75
2024/01/13 07:12:40;;;;;;;25.40;21.00;;;;;;;0.13;100.00;101305.53;5050479;28;20192;-75
2024/01/13 07:15:06;;;;;;;23.27;18.43;;;;;;;0.12;100.00;101306.31;5052790;28;20188;-77
2024/01/13 07:17:31;;;;;;;22.47;18.47;;;;;;;0.14;100.00;101303.84;5047149;28;20198;-77
2024/01/13 07:19:58;;;;;;;22.30;19.50;;;;;;;0.16;100.00;101307.34;5054258;28;20487;-76
2024/01/13 07:22:23;;;;;;;22.00;17.67;;;;;;;0.13;100.00;101310.63;5049573;28;20218;-76
2024/01/13 07:24:48;;;;;;;24.03;19.63;;;;;;;0.11;100.00;101309.66;5052384;28;20362;-75
2024/01/13 07:27:17;;;;;;;21.73;18.63;;;;;;;0.07;100.00;101310.31;5047455;28;20269;-77
2024/01/13 07:29:42;;;;;;;21.17;16.83;;;;;;;0.06;100.00;101316.19;5045385;28;20184;-76
2024/01/13 07:32:07;;;;;;;19.63;17.27;;;;;;;0.07;100.00;101314.53;5048546;28;20665;-75
2024/01/13 07:34:33;;;;;;;22.17;19.77;;;;;;;0.05;100.00;101311.88;5055202;28;20221;-75
2024/01/13 07:36:58;;;;;;;20.13;16.73;;;;;;;0.00;100.00;101308.25;5044793;28;20200;-76
2024/01/13 07:39:23;;;;;;;22.10;18.63;;;;;;;-0.02;100.00;101300.53;5042505;28;20358;-76
2024/01/13 07:41:50;;;;;;;26.13;22.57;;;;;;;-0.02;100.00;101297.13;5045586;28;20984;-76
2024/01/13 07:44:16;;;;;;;28.40;25.47;;;;;;;-0.04;100.00;101291.94;5045971;28;20946;-76
2024/01/13 07:46:41;;;;;;;27.33;24.60;;;;;;;-0.07;100.00;101291.78;5048512;28;20192;-75
2024/01/13 07:49:06;;;;;;;34.60;31.07;;;;;;;-0.09;100.00;101290.84;5052334;28;20211;-77
2024/01/13 07:51:32;;;;;;;24.70;22.03;;;;;;;-0.08;100.00;101297.69;5052517;28;20928;-75
2024/01/13 07:53:58;;;;;;;31.90;28.60;;;;;;;-0.03;100.00;101296.22;5045781;28;20271;-76
2024/01/13 07:56:23;;;;;;;31.40;26.57;;;;;;;-0.02;100.00;101297.13;5046192;28;20204;-75
2024/01/13 07:58:48;;;;;;;28.00;23.23;;;;;;;0.01;100.00;101301.47;5058326;28;20293;-76
2024/01/13 08:01:14;;;;;;;27.07;23.83;;;;;;;-0.01;100.00;101294.63;5041570;28;20188;-77
2024/01/13 08:03:39;;;;;;;27.10;22.67;;;;;;;0.01;100.00;101296.38;5051129;28;20197;-76
2024/01/13 08:06:04;;;;;;;24.60;20.27;;;;;;;-0.01;100.00;101298.88;5049583;28;20664;-76
2024/01/13 08:08:30;;;;;;;26.43;21.93;;;;;;;0.05;100.00;101299.16;5051797;28;20204;-75
2024/01/13 08:10:55;;;;;;;32.07;24.43;;;;;;;0.04;100.00;101299.97;5054564;28;20190;-77
2024/01/13 08:13:20;;;;;;;31.50;23.47;;;;;;;0.02;100.00;101304.09;5053480;28;20649;-77
2024/01/13 08:15:46;;;;;;;25.10;21.27;;;;;;;0.02;100.00;101300.69;5046826;28;20193;-76
2024/01/13 08:18:11;;;;;;;29.10;21.87;;;;;;;0.03;100.00;101295.66;5044303;28;20209;-76
2024/01/13 08:20:36;;;;;;;26.87;20.93;;;;;;;0.02;100.00;101303.22;5050774;28;20289;-75
2024/01/13 08:23:02;;;;;;;22.63;18.97;;;;;;;0.02;100.00;101301.53;5049607;28;20850;-75
2024/01/13 08:25:27;;;;;;;25.63;20.23;;;;;;;0.02;100.00;101310.88;5050450;28;20201;-76
2024/01/13 08:27:53;;;;;;;27.00;21.30;;;;;;;0.06;100.00;101311.09;5046278;28;20213;-77
2024/01/13 08:30:18;;;;;;;25.40;19.67;;;;;;;0.04;100.00;101309.28;5043816;28;20643;-75
2024/01/13 08:32:43;;;;;;;25.80;21.03;;;;;;;0.02;100.00;101303.22;5052129;28;20277;-76
2024/01/13 08:35:08;;;;;;;24.20;19.07;;;;;;;0.06;100.00;101312.78;5051303;28;20196;-76
2024/01/13 08:37:34;;;;;;;24.97;19.97;;;;;;;0.09;100.00;101313.81;5050331;28;20267;-75
2024/01/13 08:39:59;;;;;;;27.27;20.90;;;;;;;0.14;100.00;101312.38;5048733;28;20210;-76
2024/01/13 08:42:24;;;;;;;27.20;21.07;;;;;;;0.15;100.00;101309.00;5043090;28;20263;-76
2024/01/13 08:44:50;;;;;;;26.67;20.63;;;;;;;0.18;100.00;101310.84;5044190;28;22274;-75
2024/01/13 08:47:15;;;;;;;26.20;20.40;;;;;;;0.18;100.00;101317.59;5046784;28;20777;-77
2024/01/13 08:49:40;;;;;;;26.37;20.13;;;;;;;0.15;100.00;101325.97;5044157;28;20212;-75
2024/01/13 08:52:08;;;;;;;29.73;24.73;;;;;;;0.22;100.00;101324.59;5047640;28;20185;-76
2024/01/13 08:54:35;;;;;;;27.23;21.80;;;;;;;0.28;100.00;101324.91;5043899;28;20742;-77
2024/01/13 08:57:00;;;;;;;26.37;20.87;;;;;;;0.30;100.00;101324.19;5050139;28;20775;-75
2024/01/13 08:59:26;;;;;;;23.90;19.87;;;;;;;0.27;100.00;101323.16;5054354;28;20310;-75
2024/01/13 09:01:51;;;;;;;30.23;24.30;;;;;;;0.27;100.00;101323.16;5045714;28;20547;-77
2024/01/13 09:04:16;;;;;;;30.83;25.67;;;;;;;0.34;100.00;101315.00;5045748;28;20223;-75
2024/01/13 09:06:41;;;;;;;24.97;22.23;;;;;;;0.43;100.00;101310.38;5045600;28;20192;-74
2024/01/13 09:09:08;;;;;;;26.13;21.43;;;;;;;0.44;100.00;101307.03;5040253;28;20217;-77
2024/01/13 09:11:34;;;;;;;25.07;21.03;;;;;;;0.46;100.00;101317.28;5037474;28;20193;-80
2024/01/13 09:13:59;;;;;;;26.93;20.37;;;;;;;0.43;100.00;101333.31;5042627;28;20210;-76
2024/01/13 09:16:25;;;;;;;23.17;19.47;;;;;;;0.46;100.00;101330.03;5045348;28;20221;-77
2024/01/13 09:18:50;;;;;;;22.80;18.57;;;;;;;0.51;100.00;101330.25;5044153;28;20213;-75
2024/01/13 09:21:18;;;;;;;23.83;18.00;;;;;;;0.57;100.00;101328.00;5045662;28;20204;-77
2024/01/13 09:23:44;;;;;;;23.97;19.93;;;;;;;0.67;100.00;101319.16;5038996;28;20195;-75
2024/01/13 09:26:09;;;;;;;22.90;19.60;;;;;;;0.69;100.00;101328.59;5046301;28;20201;-76
2024/01/13 09:28:35;;;;;;;21.83;18.50;;;;;;;0.69;100.00;101343.88;5042026;28;20227;-75
2024/01/13 09:31:00;;;;;;;22.80;18.03;;;;;;;0.74;100.00;101344.09;5042933;28;20196;-75
2024/01/13 09:33:25;;;;;;;22.03;18.63;;;;;;;0.76;100.00;101328.06;5053743;28;20732;-76
2024/01/13 09:35:51;;;;;;;21.93;18.17;;;;;;;0.78;100.00;101312.00;5051555;28;20193;-75
2024/01/13 09:38:16;;;;;;;22.77;19.60;;;;;;;0.79;100.00;101319.72;5044045;28;21012;-75
2024/01/13 09:40:42;;;;;;;22.37;17.73;;;;;;;0.79;100.00;101317.19;5050458;28;20212;-78
2024/01/13 09:43:24;;;;;;;20.83;17.30;;;;;;;0.75;100.00;101330.56;5048814;28;20190;-76
2024/01/13 09:45:50;;;;;;;20.43;16.57;;;;;;;0.70;100.00;101325.25;5050445;28;20312;-75
2024/01/13 09:48:20;;;;;;;21.20;16.90;;;;;;;0.71;100.00;101310.81;5049282;28;20873;-75
2024/01/13 09:50:50;;;;;;;20.53;17.07;;;;;;;0.78;100.00;101310.34;5054748;28;20740;-76
2024/01/13 09:53:26;;;;;;;19.97;17.47;;;;;;;0.82;100.00;101303.69;5054170;28;20188;-76
2024/01/13 09:56:00;;;;;;;23.73;19.60;;;;;;;0.84;100.00;101308.06;5052366;28;20289;-76
2024/01/13 09:58:26;;;;;;;24.67;18.80;;;;;;;0.81;100.00;101299.41;5052276;28;20221;-76
2024/01/13 10:00:53;;;;;;;21.17;17.77;;;;;;;0.78;100.00;101296.69;5048791;28;20240;-77
2024/01/13 10:03:19;;;;;;;22.53;17.60;;;;;;;0.78;100.00;101284.84;5051262;28;20188;-76
2024/01/13 10:05:45;;;;;;;22.10;18.13;;;;;;;0.75;100.00;101272.84;5047632;28;21215;-76
2024/01/13 10:08:12;;;;;;;24.07;18.57;;;;;;;0.71;100.00;101277.69;5049995;28;20210;-76
2024/01/13 10:10:38;;;;;;;22.20;17.40;;;;;;;0.67;100.00;101269.06;5048887;28;20205;-75
2024/01/13 10:13:05;;;;;;;21.10;16.57;;;;;;;0.65;100.00;101288.47;5045652;28;20193;-75
2024/01/13 10:15:33;;;;;;;21.13;16.93;;;;;;;0.70;100.00;101292.13;5055148;28;20193;-77
2024/01/13 10:18:00;;;;;;;20.67;16.47;;;;;;;0.71;100.00;101300.63;5055017;28;20220;-77
2024/01/13 10:20:25;;;;;;;21.60;17.17;;;;;;;0.73;100.00;101296.50;5052786;28;20224;-76
2024/01/13 10:22:51;;;;;;;20.00;16.37;;;;;;;0.71;100.00;101303.19;5054920;28;20191;-75
2024/01/13 10:25:16;;;;;;;19.13;15.63;;;;;;;0.73;100.00;101296.50;5057674;28;20192;-76
2024/01/13 10:27:44;;;;;;;20.90;16.93;;;;;;;0.79;100.00;101291.69;5047126;28;20830;-75
2024/01/13 10:30:10;;;;;;;18.17;15.07;;;;;;;0.84;100.00;101297.84;5048106;28;20715;-77
2024/01/13 10:32:36;;;;;;;18.50;15.67;;;;;;;0.85;100.00;101299.59;5048721;28;20193;-76
2024/01/13 10:35:01;;;;;;;18.63;15.10;;;;;;;0.86;100.00;101283.53;5052281;28;20634;-76
2024/01/13 10:37:27;;;;;;;26.57;15.77;;;;;;;0.83;100.00;101280.81;5052050;28;20199;-76
2024/01/13 10:39:53;;;;;;;18.00;14.70;;;;;;;0.74;100.00;101273.66;5048702;28;20210;-76
2024/01/13 10:42:23;;;;;;;16.67;13.70;;;;;;;0.66;100.00;101274.94;5051969;28;20193;-77
2024/01/13 10:44:56;;;;;;;17.03;14.07;;;;;;;0.72;100.00;101266.72;5052414;28;20553;-77
2024/01/13 10:47:28;;;;;;;17.80;14.90;;;;;;;0.70;100.00;101250.47;5054457;28;20202;-76
2024/01/13 10:49:55;;;;;;;15.00;13.40;;;;;;;0.66;100.00;101248.59;5054508;28;20196;-76
2024/01/13 10:52:27;;;;;;;17.10;13.70;;;;;;;0.65;100.00;101234.13;5055721;28;20187;-76
2024/01/13 10:54:56;;;;;;;16.43;13.63;;;;;;;0.60;100.00;101233.91;5056375;28;20660;-78
2024/01/13 10:57:24;;;;;;;16.43;13.87;;;;;;;0.63;100.00;101239.13;5049949;28;20661;-75
2024/01/13 10:59:53;;;;;;;17.13;13.70;;;;;;;0.64;100.00;101233.22;5055899;28;20751;-75
2024/01/13 11:02:18;;;;;;;16.97;14.50;;;;;;;0.58;100.00;101231.28;5052990;28;20189;-76